sensor_id;sensor_type;location;lat;lon;timestamp;pressure;altitude;pressure_sealevel;temperature;humidity
57791;BME280;43621;51.798;21.588;2023-02-01T01:31:34;98639.17;;;3.88;72.74
57791;BME280;43621;51.798;21.588;2023-02-01T01:35:36;98646.04;;;4.04;72.90
57791;BME280;43621;51.798;21.588;2023-02-01T01:39:38;98648.17;;;3.98;72.66
57791;BME280;43621;51.798;21.588;2023-02-01T01:48:05;98655.30;;;3.80;72.73
57791;BME280;43621;51.798;21.588;2023-02-01T01:52:08;98656.98;;;3.71;72.76
57791;BME280;43621;51.798;21.588;2023-02-01T01:56:11;98653.30;;;3.62;72.71
57791;BME280;43621;51.798;21.588;2023-02-01T02:00:17;98650.03;;;3.47;72.49
57791;BME280;43621;51.798;21.588;2023-02-01T02:04:20;98654.33;;;3.30;72.42
57791;BME280;43621;51.798;21.588;2023-02-01T02:08:23;98657.08;;;3.18;72.35
57791;BME280;43621;51.798;21.588;2023-02-01T02:12:26;98660.84;;;3.14;72.61
57791;BME280;43621;51.798;21.588;2023-02-01T02:29:32;98680.65;;;3.25;72.83
57791;BME280;43621;51.798;21.588;2023-02-01T02:33:56;98680.48;;;3.21;72.76
57791;BME280;43621;51.798;21.588;2023-02-01T02:38:10;98678.20;;;3.17;72.65
57791;BME280;43621;51.798;21.588;2023-02-01T02:46:46;98688.10;;;3.18;72.54
57791;BME280;43621;51.798;21.588;2023-02-01T02:51:08;98694.55;;;3.22;72.40
57791;BME280;43621;51.798;21.588;2023-02-01T02:55:33;98702.00;;;3.25;72.45
57791;BME280;43621;51.798;21.588;2023-02-01T02:59:40;98708.05;;;3.30;72.42
57791;BME280;43621;51.798;21.588;2023-02-01T03:04:03;98706.34;;;3.29;72.39
57791;BME280;43621;51.798;21.588;2023-02-01T03:08:15;98702.71;;;3.25;72.34
57791;BME280;43621;51.798;21.588;2023-02-01T03:12:18;98699.45;;;3.19;72.29
57791;BME280;43621;51.798;21.588;2023-02-01T03:16:45;98703.21;;;3.12;72.34
57791;BME280;43621;51.798;21.588;2023-02-01T03:20:49;98707.26;;;3.10;72.36
57791;BME280;43621;51.798;21.588;2023-02-01T03:24:55;98710.07;;;3.11;72.40
57791;BME280;43621;51.798;21.588;2023-02-01T03:29:12;98708.30;;;3.13;72.37
57791;BME280;43621;51.798;21.588;2023-02-01T03:33:18;98715.98;;;3.16;72.47
57791;BME280;43621;51.798;21.588;2023-02-01T03:37:26;98723.98;;;3.22;72.50
57791;BME280;43621;51.798;21.588;2023-02-01T03:41:47;98728.81;;;3.27;72.41
57791;BME280;43621;51.798;21.588;2023-02-01T03:45:54;98730.10;;;3.25;72.36
57791;BME280;43621;51.798;21.588;2023-02-01T03:49:59;98727.91;;;3.21;72.43
57791;BME280;43621;51.798;21.588;2023-02-01T03:54:04;98732.34;;;3.15;72.33
57791;BME280;43621;51.798;21.588;2023-02-01T03:58:29;98733.05;;;3.12;72.46
57791;BME280;43621;51.798;21.588;2023-02-01T04:02:31;98725.45;;;3.15;72.49
57791;BME280;43621;51.798;21.588;2023-02-01T04:06:33;98727.77;;;3.16;72.38
57791;BME280;43621;51.798;21.588;2023-02-01T04:10:35;98732.14;;;3.17;72.43
57791;BME280;43621;51.798;21.588;2023-02-01T04:14:36;98735.27;;;3.19;72.56
57791;BME280;43621;51.798;21.588;2023-02-01T04:18:38;98737.09;;;3.20;72.57
57791;BME280;43621;51.798;21.588;2023-02-01T04:22:40;98740.92;;;3.17;72.49
57791;BME280;43621;51.798;21.588;2023-02-01T04:26:42;98741.36;;;3.16;72.46
57791;BME280;43621;51.798;21.588;2023-02-01T04:30:45;98743.17;;;3.15;72.42
57791;BME280;43621;51.798;21.588;2023-02-01T04:34:47;98753.07;;;3.17;72.38
57791;BME280;43621;51.798;21.588;2023-02-01T04:38:50;98754.54;;;3.20;72.42
57791;BME280;43621;51.798;21.588;2023-02-01T04:42:52;98756.83;;;3.23;72.49
57791;BME280;43621;51.798;21.588;2023-02-01T04:46:54;98758.76;;;3.23;72.43
57791;BME280;43621;51.798;21.588;2023-02-01T04:50:56;98763.83;;;3.20;72.36
57791;BME280;43621;51.798;21.588;2023-02-01T04:54:58;98765.80;;;3.19;72.34
57791;BME280;43621;51.798;21.588;2023-02-01T04:59:01;98769.79;;;3.21;72.35
57791;BME280;43621;51.798;21.588;2023-02-01T05:03:06;98771.71;;;3.25;72.26
57791;BME280;43621;51.798;21.588;2023-02-01T05:07:08;98769.95;;;3.30;72.17
57791;BME280;43621;51.798;21.588;2023-02-01T05:11:10;98766.45;;;3.34;72.19
57791;BME280;43621;51.798;21.588;2023-02-01T05:15:32;98767.66;;;3.41;72.12
57791;BME280;43621;51.798;21.588;2023-02-01T05:19:34;98764.74;;;3.43;72.05
57791;BME280;43621;51.798;21.588;2023-02-01T05:23:35;98765.01;;;3.41;72.06
57791;BME280;43621;51.798;21.588;2023-02-01T05:27:56;98767.89;;;3.38;71.93
57791;BME280;43621;51.798;21.588;2023-02-01T05:31:58;98773.82;;;3.33;71.85
57791;BME280;43621;51.798;21.588;2023-02-01T05:36:00;98768.20;;;3.30;71.79
57791;BME280;43621;51.798;21.588;2023-02-01T05:40:02;98769.50;;;3.31;71.83
57791;BME280;43621;51.798;21.588;2023-02-01T05:44:04;98772.23;;;3.33;71.77
57791;BME280;43621;51.798;21.588;2023-02-01T05:48:08;98775.86;;;3.37;71.73
57791;BME280;43621;51.798;21.588;2023-02-01T05:52:10;98779.27;;;3.40;71.66
57791;BME280;43621;51.798;21.588;2023-02-01T05:56:12;98783.04;;;3.41;71.59
57791;BME280;43621;51.798;21.588;2023-02-01T06:00:15;98786.40;;;3.39;71.44
57791;BME280;43621;51.798;21.588;2023-02-01T06:04:17;98779.80;;;3.36;71.39
57791;BME280;43621;51.798;21.588;2023-02-01T06:08:19;98778.42;;;3.34;71.33
57791;BME280;43621;51.798;21.588;2023-02-01T06:12:21;98780.70;;;3.35;71.33
57791;BME280;43621;51.798;21.588;2023-02-01T06:16:23;98788.04;;;3.40;71.51
57791;BME280;43621;51.798;21.588;2023-02-01T06:20:25;98786.25;;;3.63;72.05
57791;BME280;43621;51.798;21.588;2023-02-01T06:24:27;98781.25;;;3.85;71.77
57791;BME280;43621;51.798;21.588;2023-02-01T06:28:29;98771.41;;;3.96;71.36
57791;BME280;43621;51.798;21.588;2023-02-01T06:32:32;98770.56;;;4.10;71.45
57791;BME280;43621;51.798;21.588;2023-02-01T06:36:34;98776.13;;;4.26;71.03
57791;BME280;43621;51.798;21.588;2023-02-01T06:40:38;98782.83;;;4.38;70.88
57791;BME280;43621;51.798;21.588;2023-02-01T06:44:39;98779.95;;;4.44;70.43
57791;BME280;43621;51.798;21.588;2023-02-01T06:48:41;98778.23;;;4.38;70.23
57791;BME280;43621;51.798;21.588;2023-02-01T06:52:43;98772.90;;;4.26;70.05
57791;BME280;43621;51.798;21.588;2023-02-01T06:56:45;98766.20;;;4.17;70.09
57791;BME280;43621;51.798;21.588;2023-02-01T07:00:47;98759.13;;;4.14;69.99
57791;BME280;43621;51.798;21.588;2023-02-01T07:04:49;98762.37;;;4.25;69.88
57791;BME280;43621;51.798;21.588;2023-02-01T07:08:51;98764.08;;;4.34;69.65
57791;BME280;43621;51.798;21.588;2023-02-01T07:12:56;98766.27;;;4.30;69.54
57791;BME280;43621;51.798;21.588;2023-02-01T07:16:58;98763.27;;;4.25;69.56
57791;BME280;43621;51.798;21.588;2023-02-01T07:21:00;98753.38;;;4.19;69.65
57791;BME280;43621;51.798;21.588;2023-02-01T07:25:03;98757.86;;;4.13;69.67
57791;BME280;43621;51.798;21.588;2023-02-01T07:29:04;98758.64;;;4.14;69.82
57791;BME280;43621;51.798;21.588;2023-02-01T07:33:06;98761.01;;;4.27;69.83
57791;BME280;43621;51.798;21.588;2023-02-01T07:37:08;98765.61;;;4.48;69.76
57791;BME280;43621;51.798;21.588;2023-02-01T07:41:10;98764.80;;;4.55;69.68
57791;BME280;43621;51.798;21.588;2023-02-01T07:45:12;98760.38;;;4.46;69.22
57791;BME280;43621;51.798;21.588;2023-02-01T07:49:15;98759.00;;;4.36;69.18
57791;BME280;43621;51.798;21.588;2023-02-01T07:53:19;98756.75;;;4.27;69.18
57791;BME280;43621;51.798;21.588;2023-02-01T07:57:20;98757.61;;;4.25;69.23
57791;BME280;43621;51.798;21.588;2023-02-01T08:01:24;98757.14;;;4.20;69.20
57791;BME280;43621;51.798;21.588;2023-02-01T08:05:27;98753.77;;;4.10;69.08
57791;BME280;43621;51.798;21.588;2023-02-01T08:09:29;98756.04;;;4.02;69.11
57791;BME280;43621;51.798;21.588;2023-02-01T08:13:33;98766.12;;;3.99;69.16
57791;BME280;43621;51.798;21.588;2023-02-01T08:17:36;98759.88;;;4.01;69.24
57791;BME280;43621;51.798;21.588;2023-02-01T08:21:38;98765.75;;;4.03;69.23
57791;BME280;43621;51.798;21.588;2023-02-01T08:25:40;98766.10;;;4.14;69.15
57791;BME280;43621;51.798;21.588;2023-02-01T08:29:42;98769.63;;;4.21;68.90
57791;BME280;43621;51.798;21.588;2023-02-01T08:33:53;98771.25;;;4.16;68.71
57791;BME280;43621;51.798;21.588;2023-02-01T08:37:55;98766.55;;;4.10;68.80
57791;BME280;43621;51.798;21.588;2023-02-01T08:41:57;98764.95;;;4.17;68.93
57791;BME280;43621;51.798;21.588;2023-02-01T08:46:18;98768.46;;;4.27;68.94
57791;BME280;43621;51.798;21.588;2023-02-01T08:50:21;98765.77;;;4.32;68.67
57791;BME280;43621;51.798;21.588;2023-02-01T08:54:23;98765.41;;;4.34;68.53
57791;BME280;43621;51.798;21.588;2023-02-01T08:58:25;98771.63;;;4.34;68.66
57791;BME280;43621;51.798;21.588;2023-02-01T09:02:27;98775.09;;;4.34;68.62
57791;BME280;43621;51.798;21.588;2023-02-01T09:06:29;98773.26;;;4.33;68.57
57791;BME280;43621;51.798;21.588;2023-02-01T09:10:32;98777.06;;;4.37;68.63
57791;BME280;43621;51.798;21.588;2023-02-01T09:14:34;98781.73;;;4.37;68.64
57791;BME280;43621;51.798;21.588;2023-02-01T09:18:36;98787.35;;;4.32;68.78
57791;BME280;43621;51.798;21.588;2023-02-01T09:22:39;98784.63;;;4.28;68.89
57791;BME280;43621;51.798;21.588;2023-02-01T09:26:41;98780.54;;;4.27;69.08
57791;BME280;43621;51.798;21.588;2023-02-01T09:30:43;98778.62;;;4.25;69.17
57791;BME280;43621;51.798;21.588;2023-02-01T09:34:44;98775.18;;;4.29;69.34
57791;BME280;43621;51.798;21.588;2023-02-01T09:38:46;98772.79;;;4.33;69.43
57791;BME280;43621;51.798;21.588;2023-02-01T09:47:13;98769.36;;;4.56;69.54
57791;BME280;43621;51.798;21.588;2023-02-01T09:51:20;98765.26;;;4.62;69.57
57791;BME280;43621;51.798;21.588;2023-02-01T09:59:46;98766.00;;;4.75;69.59
57791;BME280;43621;51.798;21.588;2023-02-01T10:03:50;98766.19;;;4.75;69.49
57791;BME280;43621;51.798;21.588;2023-02-01T10:29:18;98741.97;;;4.83;69.36
57791;BME280;43621;51.798;21.588;2023-02-01T10:37:30;98736.70;;;5.25;69.07
57791;BME280;43621;51.798;21.588;2023-02-01T10:41:35;98733.95;;;5.29;68.68
57791;BME280;43621;51.798;21.588;2023-02-01T10:45:40;98736.51;;;5.26;68.41
57791;BME280;43621;51.798;21.588;2023-02-01T10:49:52;98725.98;;;5.35;68.40
57791;BME280;43621;51.798;21.588;2023-02-01T10:54:00;98727.29;;;5.64;68.09
57791;BME280;43621;51.798;21.588;2023-02-01T10:58:06;98723.13;;;5.77;68.05
57791;BME280;43621;51.798;21.588;2023-02-01T11:02:33;98718.90;;;6.08;67.71
57791;BME280;43621;51.798;21.588;2023-02-01T11:06:38;98719.53;;;6.57;67.13
57791;BME280;43621;51.798;21.588;2023-02-01T11:10:42;98718.91;;;6.91;66.56
57791;BME280;43621;51.798;21.588;2023-02-01T11:14:47;98713.14;;;7.13;66.31
57791;BME280;43621;51.798;21.588;2023-02-01T11:18:53;98714.73;;;7.09;65.02
57791;BME280;43621;51.798;21.588;2023-02-01T11:22:57;98707.90;;;6.82;64.86
57791;BME280;43621;51.798;21.588;2023-02-01T11:27:01;98706.69;;;6.57;64.96
57791;BME280;43621;51.798;21.588;2023-02-01T11:31:08;98707.20;;;6.30;64.94
57791;BME280;43621;51.798;21.588;2023-02-01T11:35:15;98706.52;;;6.07;64.86
57791;BME280;43621;51.798;21.588;2023-02-01T11:39:23;98699.20;;;5.84;64.98
57791;BME280;43621;51.798;21.588;2023-02-01T11:43:28;98699.04;;;5.59;65.11
57791;BME280;43621;51.798;21.588;2023-02-01T11:47:38;98701.06;;;5.40;65.30
57791;BME280;43621;51.798;21.588;2023-02-01T12:05:07;98699.77;;;5.49;66.06
57791;BME280;43621;51.798;21.588;2023-02-01T12:23:04;98692.34;;;5.18;66.34
57791;BME280;43621;51.798;21.588;2023-02-01T12:36:21;98694.56;;;5.20;66.94
57791;BME280;43621;51.798;21.588;2023-02-01T12:44:57;98684.48;;;5.32;67.20
57791;BME280;43621;51.798;21.588;2023-02-01T12:49:41;98677.64;;;5.43;67.00
57791;BME280;43621;51.798;21.588;2023-02-01T12:53:50;98678.11;;;5.74;66.89
57791;BME280;43621;51.798;21.588;2023-02-01T13:06:38;98681.94;;;6.18;66.78
57791;BME280;43621;51.798;21.588;2023-02-01T13:10:45;98689.70;;;6.02;66.62
57791;BME280;43621;51.798;21.588;2023-02-01T13:14:53;98691.17;;;5.80;66.54
57791;BME280;43621;51.798;21.588;2023-02-01T13:19:19;98695.45;;;5.60;66.59
57791;BME280;43621;51.798;21.588;2023-02-01T13:23:29;98695.35;;;5.42;66.78
57791;BME280;43621;51.798;21.588;2023-02-01T13:27:32;98697.96;;;5.33;66.98
57791;BME280;43621;51.798;21.588;2023-02-01T13:31:49;98700.04;;;5.27;67.12
57791;BME280;43621;51.798;21.588;2023-02-01T13:40:44;98700.05;;;5.21;67.57
57791;BME280;43621;51.798;21.588;2023-02-01T13:44:52;98704.27;;;5.20;67.78
57791;BME280;43621;51.798;21.588;2023-02-01T13:49:00;98705.61;;;5.21;67.82
57791;BME280;43621;51.798;21.588;2023-02-01T13:57:36;98707.63;;;5.04;67.88
57791;BME280;43621;51.798;21.588;2023-02-01T14:01:39;98703.20;;;5.01;68.02
57791;BME280;43621;51.798;21.588;2023-02-01T14:09:42;98693.54;;;5.08;68.31
57791;BME280;43621;51.798;21.588;2023-02-01T14:13:44;98687.95;;;5.13;68.39
57791;BME280;43621;51.798;21.588;2023-02-01T14:17:46;98686.41;;;5.15;68.52
57791;BME280;43621;51.798;21.588;2023-02-01T14:21:51;98682.31;;;5.14;68.61
57791;BME280;43621;51.798;21.588;2023-02-01T14:26:03;98677.18;;;5.10;68.49
57791;BME280;43621;51.798;21.588;2023-02-01T14:30:11;98669.73;;;5.06;68.59
57791;BME280;43621;51.798;21.588;2023-02-01T14:34:24;98669.23;;;5.07;68.62
57791;BME280;43621;51.798;21.588;2023-02-01T14:38:28;98681.14;;;5.06;68.51
57791;BME280;43621;51.798;21.588;2023-02-01T14:47:04;98707.80;;;5.17;68.59
57791;BME280;43621;51.798;21.588;2023-02-01T14:51:07;98706.16;;;5.03;68.25
57791;BME280;43621;51.798;21.588;2023-02-01T14:55:15;98702.69;;;4.70;68.21
57791;BME280;43621;51.798;21.588;2023-02-01T14:59:20;98698.30;;;4.43;68.42
57791;BME280;43621;51.798;21.588;2023-02-01T15:08:30;98704.40;;;4.14;69.02
57791;BME280;43621;51.798;21.588;2023-02-01T15:12:40;98708.39;;;4.16;69.24
57791;BME280;43621;51.798;21.588;2023-02-01T15:16:42;98709.61;;;4.22;69.34
57791;BME280;43621;51.798;21.588;2023-02-01T15:20:58;98712.45;;;4.31;69.48
57791;BME280;43621;51.798;21.588;2023-02-01T15:25:00;98710.06;;;4.37;69.47
57791;BME280;43621;51.798;21.588;2023-02-01T15:29:02;98707.32;;;4.39;69.56
57791;BME280;43621;51.798;21.588;2023-02-01T15:33:22;98712.29;;;4.39;69.58
57791;BME280;43621;51.798;21.588;2023-02-01T15:37:24;98717.33;;;4.37;69.43
57791;BME280;43621;51.798;21.588;2023-02-01T15:41:29;98718.84;;;4.33;69.38
57791;BME280;43621;51.798;21.588;2023-02-01T15:45:32;98719.86;;;4.30;69.32
57791;BME280;43621;51.798;21.588;2023-02-01T15:49:39;98721.64;;;4.25;69.22
57791;BME280;43621;51.798;21.588;2023-02-01T15:53:48;98721.40;;;4.26;69.30
57791;BME280;43621;51.798;21.588;2023-02-01T15:57:52;98722.47;;;4.33;69.33
57791;BME280;43621;51.798;21.588;2023-02-01T16:01:54;98717.77;;;4.38;69.34
57791;BME280;43621;51.798;21.588;2023-02-01T16:05:59;98715.37;;;4.40;69.43
57791;BME280;43621;51.798;21.588;2023-02-01T16:10:20;98715.06;;;4.39;69.27
57791;BME280;43621;51.798;21.588;2023-02-01T16:14:25;98720.87;;;4.36;69.22
57791;BME280;43621;51.798;21.588;2023-02-01T16:18:27;98722.09;;;4.34;69.32
57791;BME280;43621;51.798;21.588;2023-02-01T16:22:29;98719.92;;;4.33;69.22
57791;BME280;43621;51.798;21.588;2023-02-01T16:26:32;98721.43;;;4.35;69.37
57791;BME280;43621;51.798;21.588;2023-02-01T16:30:35;98722.11;;;4.41;69.36
57791;BME280;43621;51.798;21.588;2023-02-01T16:34:37;98727.76;;;4.48;69.31
57791;BME280;43621;51.798;21.588;2023-02-01T16:38:39;98727.62;;;4.50;69.37
57791;BME280;43621;51.798;21.588;2023-02-01T16:42:41;98729.55;;;4.49;69.52
57791;BME280;43621;51.798;21.588;2023-02-01T16:46:44;98729.40;;;4.43;69.41
57791;BME280;43621;51.798;21.588;2023-02-01T16:50:50;98724.02;;;4.27;69.35
57791;BME280;43621;51.798;21.588;2023-02-01T16:54:53;98722.95;;;4.07;69.49
57791;BME280;43621;51.798;21.588;2023-02-01T16:58:55;98721.73;;;3.91;69.39
57791;BME280;43621;51.798;21.588;2023-02-01T17:02:57;98719.33;;;3.81;69.69
57791;BME280;43621;51.798;21.588;2023-02-01T17:07:00;98725.55;;;3.82;69.99
57791;BME280;43621;51.798;21.588;2023-02-01T17:11:05;98724.28;;;3.90;70.29
57791;BME280;43621;51.798;21.588;2023-02-01T17:15:08;98725.17;;;3.93;70.42
57791;BME280;43621;51.798;21.588;2023-02-01T17:19:16;98722.78;;;3.95;70.55
57791;BME280;43621;51.798;21.588;2023-02-01T17:23:19;98729.79;;;3.96;70.54
57791;BME280;43621;51.798;21.588;2023-02-01T17:27:21;98727.79;;;3.99;70.45
57791;BME280;43621;51.798;21.588;2023-02-01T17:31:23;98726.83;;;4.04;70.42
57791;BME280;43621;51.798;21.588;2023-02-01T17:35:27;98723.58;;;4.10;70.63
57791;BME280;43621;51.798;21.588;2023-02-01T17:39:29;98723.72;;;4.11;70.67
57791;BME280;43621;51.798;21.588;2023-02-01T17:43:51;98720.39;;;4.09;70.67
57791;BME280;43621;51.798;21.588;2023-02-01T17:47:54;98719.69;;;4.05;70.69
57791;BME280;43621;51.798;21.588;2023-02-01T17:51:56;98719.16;;;3.97;70.53
57791;BME280;43621;51.798;21.588;2023-02-01T17:55:58;98723.23;;;3.98;70.66
57791;BME280;43621;51.798;21.588;2023-02-01T18:00:01;98718.79;;;4.04;70.85
57791;BME280;43621;51.798;21.588;2023-02-01T18:04:02;98714.97;;;4.10;70.95
57791;BME280;43621;51.798;21.588;2023-02-01T18:08:05;98718.02;;;4.10;70.98
57791;BME280;43621;51.798;21.588;2023-02-01T18:12:30;98723.01;;;4.09;70.89
57791;BME280;43621;51.798;21.588;2023-02-01T18:16:33;98721.45;;;4.04;70.90
57791;BME280;43621;51.798;21.588;2023-02-01T18:20:39;98723.37;;;3.98;70.98
57791;BME280;43621;51.798;21.588;2023-02-01T18:24:41;98724.29;;;3.98;70.99
57791;BME280;43621;51.798;21.588;2023-02-01T18:28:43;98724.67;;;3.99;70.92
57791;BME280;43621;51.798;21.588;2023-02-01T18:32:46;98719.38;;;4.03;70.96
57791;BME280;43621;51.798;21.588;2023-02-01T18:36:48;98719.07;;;4.02;71.00
57791;BME280;43621;51.798;21.588;2023-02-01T18:40:52;98724.27;;;3.98;70.98
57791;BME280;43621;51.798;21.588;2023-02-01T18:44:54;98729.70;;;3.95;71.07
57791;BME280;43621;51.798;21.588;2023-02-01T18:48:56;98723.45;;;3.91;71.02
57791;BME280;43621;51.798;21.588;2023-02-01T18:53:00;98727.84;;;3.84;70.96
57791;BME280;43621;51.798;21.588;2023-02-01T18:57:02;98726.30;;;3.84;70.99
57791;BME280;43621;51.798;21.588;2023-02-01T19:01:07;98721.73;;;3.87;71.04
57791;BME280;43621;51.798;21.588;2023-02-01T19:05:11;98723.72;;;3.88;71.06
57791;BME280;43621;51.798;21.588;2023-02-01T19:09:13;98727.38;;;3.85;71.05
57791;BME280;43621;51.798;21.588;2023-02-01T19:13:15;98722.04;;;3.83;71.05
57791;BME280;43621;51.798;21.588;2023-02-01T19:17:18;98719.73;;;3.80;71.20
57791;BME280;43621;51.798;21.588;2023-02-01T19:21:20;98722.23;;;3.77;71.15
57791;BME280;43621;51.798;21.588;2023-02-01T19:25:25;98718.72;;;3.75;71.12
57791;BME280;43621;51.798;21.588;2023-02-01T19:29:27;98717.23;;;3.79;71.11
57791;BME280;43621;51.798;21.588;2023-02-01T19:33:30;98711.65;;;3.83;71.07
57791;BME280;43621;51.798;21.588;2023-02-01T19:37:32;98707.88;;;3.87;71.06
57791;BME280;43621;51.798;21.588;2023-02-01T19:41:34;98705.66;;;3.87;71.07
57791;BME280;43621;51.798;21.588;2023-02-01T19:45:36;98710.24;;;3.82;71.10
57791;BME280;43621;51.798;21.588;2023-02-01T19:49:38;98711.39;;;3.76;71.15
57791;BME280;43621;51.798;21.588;2023-02-01T19:53:40;98717.21;;;3.73;71.12
57791;BME280;43621;51.798;21.588;2023-02-01T19:57:41;98719.23;;;3.70;71.30
57791;BME280;43621;51.798;21.588;2023-02-01T20:01:44;98715.30;;;3.67;71.21
57791;BME280;43621;51.798;21.588;2023-02-01T20:05:52;98718.12;;;3.70;71.17
57791;BME280;43621;51.798;21.588;2023-02-01T20:09:54;98720.84;;;3.75;71.18
57791;BME280;43621;51.798;21.588;2023-02-01T20:13:56;98720.67;;;3.79;71.24
57791;BME280;43621;51.798;21.588;2023-02-01T20:17:59;98723.43;;;3.85;71.24
57791;BME280;43621;51.798;21.588;2023-02-01T20:22:01;98722.68;;;3.88;71.20
57791;BME280;43621;51.798;21.588;2023-02-01T20:26:04;98723.58;;;3.88;71.26
57791;BME280;43621;51.798;21.588;2023-02-01T20:30:07;98717.83;;;3.86;71.38
57791;BME280;43621;51.798;21.588;2023-02-01T20:34:10;98714.87;;;3.84;71.36
57791;BME280;43621;51.798;21.588;2023-02-01T20:38:12;98714.43;;;3.79;71.27
57791;BME280;43621;51.798;21.588;2023-02-01T20:42:15;98712.54;;;3.77;71.17
57791;BME280;43621;51.798;21.588;2023-02-01T20:46:18;98711.38;;;3.80;71.30
57791;BME280;43621;51.798;21.588;2023-02-01T20:50:20;98710.59;;;3.84;71.34
57791;BME280;43621;51.798;21.588;2023-02-01T20:54:23;98706.50;;;3.83;71.32
57791;BME280;43621;51.798;21.588;2023-02-01T20:58:26;98703.27;;;3.78;71.37
57791;BME280;43621;51.798;21.588;2023-02-01T21:02:28;98706.34;;;3.73;71.40
57791;BME280;43621;51.798;21.588;2023-02-01T21:06:30;98706.75;;;3.70;71.45
57791;BME280;43621;51.798;21.588;2023-02-01T21:10:32;98706.11;;;3.68;71.41
57791;BME280;43621;51.798;21.588;2023-02-01T21:14:34;98711.46;;;3.70;71.44
57791;BME280;43621;51.798;21.588;2023-02-01T21:18:37;98709.06;;;3.73;71.43
57791;BME280;43621;51.798;21.588;2023-02-01T21:22:39;98704.71;;;3.76;71.40
57791;BME280;43621;51.798;21.588;2023-02-01T21:26:41;98704.90;;;3.74;71.42
57791;BME280;43621;51.798;21.588;2023-02-01T21:30:42;98711.38;;;3.69;71.29
57791;BME280;43621;51.798;21.588;2023-02-01T21:34:44;98708.20;;;3.61;71.36
57791;BME280;43621;51.798;21.588;2023-02-01T21:38:47;98709.77;;;3.61;71.40
57791;BME280;43621;51.798;21.588;2023-02-01T21:42:52;98715.27;;;3.65;71.51
57791;BME280;43621;51.798;21.588;2023-02-01T21:46:54;98710.12;;;3.71;71.51
57791;BME280;43621;51.798;21.588;2023-02-01T21:50:56;98708.47;;;3.74;71.49
57791;BME280;43621;51.798;21.588;2023-02-01T21:54:58;98704.00;;;3.74;71.45
57791;BME280;43621;51.798;21.588;2023-02-01T21:59:00;98704.81;;;3.70;71.50
57791;BME280;43621;51.798;21.588;2023-02-01T22:03:02;98703.24;;;3.66;71.39
57791;BME280;43621;51.798;21.588;2023-02-01T22:07:05;98690.11;;;3.65;71.38
57791;BME280;43621;51.798;21.588;2023-02-01T22:11:07;98696.13;;;3.65;71.23
57791;BME280;43621;51.798;21.588;2023-02-01T22:15:09;98700.80;;;3.65;71.22
57791;BME280;43621;51.798;21.588;2023-02-01T22:19:12;98701.42;;;3.68;71.34
57791;BME280;43621;51.798;21.588;2023-02-01T22:23:15;98700.35;;;3.70;71.42
57791;BME280;43621;51.798;21.588;2023-02-01T22:27:17;98697.61;;;3.68;71.48
57791;BME280;43621;51.798;21.588;2023-02-01T22:31:19;98695.13;;;3.63;71.36
57791;BME280;43621;51.798;21.588;2023-02-01T22:35:21;98699.40;;;3.55;71.41
57791;BME280;43621;51.798;21.588;2023-02-01T22:39:23;98694.14;;;3.51;71.56
57791;BME280;43621;51.798;21.588;2023-02-01T22:43:25;98691.44;;;3.53;71.42
57791;BME280;43621;51.798;21.588;2023-02-01T22:47:27;98689.73;;;3.57;71.45
57791;BME280;43621;51.798;21.588;2023-02-01T22:51:31;98690.89;;;3.60;71.54
57791;BME280;43621;51.798;21.588;2023-02-01T22:55:35;98685.52;;;3.60;71.52
57791;BME280;43621;51.798;21.588;2023-02-01T22:59:37;98688.16;;;3.59;71.72
57791;BME280;43621;51.798;21.588;2023-02-01T23:03:39;98683.61;;;3.58;71.72
57791;BME280;43621;51.798;21.588;2023-02-01T23:07:41;98680.38;;;3.55;71.70
57791;BME280;43621;51.798;21.588;2023-02-01T23:11:43;98680.38;;;3.55;71.73
57791;BME280;43621;51.798;21.588;2023-02-01T23:15:45;98685.89;;;3.62;71.71
57791;BME280;43621;51.798;21.588;2023-02-01T23:19:47;98684.66;;;3.66;71.71
57791;BME280;43621;51.798;21.588;2023-02-01T23:23:55;98680.17;;;3.68;71.82
57791;BME280;43621;51.798;21.588;2023-02-01T23:27:57;98676.52;;;3.65;71.88
57791;BME280;43621;51.798;21.588;2023-02-01T23:31:59;98670.70;;;3.58;71.93
57791;BME280;43621;51.798;21.588;2023-02-01T23:36:03;98665.30;;;3.49;71.98
57791;BME280;43621;51.798;21.588;2023-02-01T23:40:06;98663.50;;;3.38;71.91
57791;BME280;43621;51.798;21.588;2023-02-01T23:44:08;98661.88;;;3.31;71.95
57791;BME280;43621;51.798;21.588;2023-02-01T23:48:10;98662.39;;;3.27;71.99
57791;BME280;43621;51.798;21.588;2023-02-01T23:52:12;98656.73;;;3.26;71.84
57791;BME280;43621;51.798;21.588;2023-02-01T23:56:20;98649.11;;;3.23;71.78
